createdAt,value
2023-03-18T00:00:38.899Z,15.2
2023-03-18T00:05:45.290Z,15.1
2023-03-18T00:10:51.322Z,15.1
2023-03-18T00:15:57.636Z,15.0
2023-03-18T00:21:03.801Z,15.0
2023-03-18T00:26:09.982Z,15.0
2023-03-18T00:31:16.504Z,14.9
2023-03-18T00:36:22.367Z,14.9
2023-03-18T00:41:28.576Z,14.9
2023-03-18T00:46:34.852Z,14.9
2023-03-18T00:51:41.011Z,14.8
2023-03-18T00:56:47.210Z,14.8
2023-03-18T01:01:53.676Z,14.8
2023-03-18T01:06:59.626Z,14.8
2023-03-18T01:12:05.840Z,14.8
2023-03-18T01:17:12.065Z,14.7
2023-03-18T01:22:18.278Z,14.7
2023-03-18T01:27:23.519Z,14.7
2023-03-18T01:32:29.760Z,14.7
2023-03-18T01:37:35.155Z,14.7
2023-03-18T01:42:41.170Z,14.6
2023-03-18T01:47:47.374Z,14.6
2023-03-18T01:52:53.586Z,14.6
2023-03-18T01:57:59.802Z,14.6
2023-03-18T02:03:06.018Z,14.5
2023-03-18T02:08:12.240Z,14.5
2023-03-18T02:13:18.591Z,14.5
2023-03-18T02:18:24.683Z,14.4
2023-03-18T02:23:30.914Z,14.4
2023-03-18T02:28:37.137Z,14.4
2023-03-18T02:33:42.338Z,14.3
2023-03-18T02:38:48.556Z,14.3
2023-03-18T02:43:54.765Z,14.2
2023-03-18T02:49:00.993Z,14.2
2023-03-18T02:54:07.211Z,14.2
2023-03-18T02:59:13.411Z,14.2
2023-03-18T03:04:19.644Z,14.2
2023-03-18T03:09:25.853Z,14.1
2023-03-18T03:14:32.074Z,14.1
2023-03-18T03:19:38.296Z,14.1
2023-03-18T03:24:43.538Z,14.0
2023-03-18T03:29:49.742Z,14.0
2023-03-18T03:34:55.004Z,14.0
2023-03-18T03:40:01.196Z,13.9
2023-03-18T03:45:07.413Z,13.9
2023-03-18T03:50:13.617Z,13.9
2023-03-18T03:55:19.857Z,13.8
2023-03-18T04:00:26.066Z,13.8
2023-03-18T04:05:32.272Z,13.7
2023-03-18T04:10:38.475Z,13.7
2023-03-18T04:15:44.772Z,13.7
2023-03-18T04:20:50.899Z,13.7
2023-03-18T04:25:57.133Z,13.6
2023-03-18T04:31:03.377Z,13.6
2023-03-18T04:36:09.586Z,13.6
2023-03-18T04:41:15.761Z,13.5
2023-03-18T04:46:21.989Z,13.5
2023-03-18T04:51:28.184Z,13.5
2023-03-18T04:56:34.397Z,13.5
2023-03-18T05:01:40.616Z,13.5
2023-03-18T05:06:46.828Z,13.5
2023-03-18T05:11:53.033Z,13.5
2023-03-18T05:16:59.239Z,13.5
2023-03-18T05:22:04.479Z,13.5
2023-03-18T05:27:10.806Z,13.5
2023-03-18T05:32:15.936Z,13.5
2023-03-18T05:37:22.145Z,13.4
2023-03-18T05:42:28.353Z,13.4
2023-03-18T05:47:34.565Z,13.4
2023-03-18T05:52:40.777Z,13.4
2023-03-18T05:57:46.991Z,13.4
2023-03-18T06:02:53.197Z,13.4
2023-03-18T06:07:59.520Z,13.4
2023-03-18T06:13:05.627Z,13.4
2023-03-18T06:18:11.839Z,13.4
2023-03-18T06:23:18.053Z,13.4
2023-03-18T06:28:24.267Z,13.4
2023-03-18T06:33:30.497Z,13.4
2023-03-18T06:38:36.691Z,13.4
2023-03-18T06:43:42.910Z,13.4
2023-03-18T06:48:49.123Z,13.5
2023-03-18T06:53:55.333Z,13.5
2023-03-18T06:59:01.584Z,13.5
2023-03-18T07:04:07.838Z,13.6
2023-03-18T07:09:13.981Z,13.8
2023-03-18T07:14:20.199Z,14.0
2023-03-18T07:19:25.439Z,14.2
2023-03-18T07:24:31.649Z,14.4
2023-03-18T07:29:37.852Z,14.6
2023-03-18T07:34:43.088Z,14.7
2023-03-18T07:39:49.296Z,14.7
2023-03-18T07:44:55.511Z,14.8
2023-03-18T07:50:01.718Z,14.8
2023-03-18T07:55:07.935Z,14.9
2023-03-18T08:00:14.166Z,14.9
2023-03-18T08:05:20.419Z,14.9
2023-03-18T08:10:26.573Z,14.9
2023-03-18T08:15:33.066Z,15.0
2023-03-18T08:20:39.070Z,15.1
2023-03-18T08:25:45.203Z,15.2
2023-03-18T08:30:51.437Z,15.4
2023-03-18T08:35:57.638Z,15.5
2023-03-18T08:41:03.833Z,15.7
2023-03-18T08:46:10.107Z,15.8
2023-03-18T08:51:16.309Z,16.0
2023-03-18T08:56:22.490Z,16.1
2023-03-18T09:01:28.729Z,16.3
2023-03-18T09:06:34.882Z,16.4
2023-03-18T09:11:41.083Z,16.5
2023-03-18T09:16:47.377Z,16.6
2023-03-18T09:21:52.533Z,16.6
2023-03-18T09:26:58.735Z,16.6
2023-03-18T09:32:03.990Z,16.6
2023-03-18T09:37:10.179Z,16.7
2023-03-18T09:42:16.384Z,16.8
2023-03-18T09:47:22.689Z,17.0
2023-03-18T09:52:28.801Z,17.2
2023-03-18T09:57:35.007Z,17.3
2023-03-18T10:02:41.234Z,17.4
2023-03-18T10:07:47.428Z,17.5
2023-03-18T10:12:53.645Z,17.7
2023-03-18T10:17:59.842Z,17.9
2023-03-18T10:23:06.089Z,18.0
2023-03-18T10:28:12.275Z,18.1
2023-03-18T10:33:18.526Z,18.2
2023-03-18T10:38:24.687Z,18.3
2023-03-18T10:43:30.893Z,18.5
2023-03-18T10:48:37.095Z,18.6
2023-03-18T10:53:43.307Z,18.8
2023-03-18T10:58:49.517Z,18.9
2023-03-18T11:03:55.720Z,19.0
2023-03-18T11:09:01.931Z,19.2
2023-03-18T11:14:08.153Z,19.3
2023-03-18T11:19:13.373Z,19.4
2023-03-18T11:24:19.581Z,19.5
2023-03-18T11:29:25.825Z,19.6
2023-03-18T11:34:31.031Z,19.7
2023-03-18T11:39:37.254Z,19.8
2023-03-18T11:44:43.442Z,20.0
2023-03-18T11:49:49.659Z,20.0
2023-03-18T11:54:55.857Z,20.0
2023-03-18T12:00:02.092Z,19.9
2023-03-18T12:05:08.388Z,19.8
2023-03-18T12:10:14.492Z,19.8
2023-03-18T12:15:20.690Z,19.7
2023-03-18T12:20:26.908Z,19.7
2023-03-18T12:25:33.112Z,19.6
2023-03-18T12:30:39.320Z,19.6
2023-03-18T12:35:45.560Z,19.5
2023-03-18T12:40:51.737Z,19.5
2023-03-18T12:45:58.000Z,19.4
2023-03-18T12:51:04.153Z,19.3
2023-03-18T12:56:10.368Z,19.3
2023-03-18T13:01:16.726Z,19.2
2023-03-18T13:06:22.777Z,19.1
2023-03-18T13:11:28.982Z,19.0
2023-03-18T13:16:35.304Z,18.9
2023-03-18T13:21:40.433Z,18.8
2023-03-18T13:26:46.665Z,18.9
2023-03-18T13:31:51.874Z,19.0
2023-03-18T13:36:58.088Z,19.2
2023-03-18T13:42:04.291Z,19.3
2023-03-18T13:47:10.494Z,19.3
2023-03-18T13:52:16.709Z,19.3
2023-03-18T13:57:22.926Z,19.3
2023-03-18T14:02:29.130Z,19.2
2023-03-18T14:07:35.353Z,19.1
2023-03-18T14:12:41.546Z,19.0
2023-03-18T14:17:47.812Z,19.0
2023-03-18T14:22:53.963Z,19.0
2023-03-18T14:28:00.185Z,19.0
2023-03-18T14:33:06.412Z,18.9
2023-03-18T14:38:12.613Z,18.9
2023-03-18T14:43:18.796Z,18.8
2023-03-18T14:48:25.008Z,18.8
2023-03-18T14:53:31.211Z,18.8
2023-03-18T14:58:37.421Z,18.9
2023-03-18T15:03:43.639Z,19.0
2023-03-18T15:08:49.856Z,19.1
2023-03-18T15:13:57.314Z,19.1
2023-03-18T15:19:01.281Z,19.1
2023-03-18T15:24:07.691Z,19.2
2023-03-18T15:29:13.707Z,19.3
2023-03-18T15:34:19.916Z,19.4
2023-03-18T15:39:26.128Z,19.5
2023-03-18T15:44:32.349Z,19.6
2023-03-18T15:49:38.551Z,19.6
2023-03-18T15:54:44.753Z,19.7
2023-03-18T15:59:50.963Z,19.8
2023-03-18T16:04:57.158Z,19.9
2023-03-18T16:10:03.375Z,19.9
2023-03-18T16:15:09.582Z,20.0
2023-03-18T16:20:15.788Z,20.0
2023-03-18T16:25:21.996Z,20.0
2023-03-18T16:30:28.206Z,19.9
2023-03-18T16:35:34.699Z,19.8
2023-03-18T16:40:40.624Z,19.8
2023-03-18T16:45:46.858Z,19.6
2023-03-18T16:50:53.045Z,19.5
2023-03-18T16:55:59.251Z,19.3
2023-03-18T17:01:05.509Z,19.2
2023-03-18T17:06:10.690Z,19.0
2023-03-18T17:11:16.899Z,18.9
2023-03-18T17:16:22.167Z,18.7
2023-03-18T17:21:28.358Z,18.6
2023-03-18T17:26:33.584Z,18.5
2023-03-18T17:31:39.796Z,18.3
2023-03-18T17:36:46.010Z,18.2
2023-03-18T17:41:52.205Z,18.0
2023-03-18T17:46:58.430Z,17.8
2023-03-18T17:52:04.628Z,17.7
2023-03-18T17:57:10.828Z,17.5
2023-03-18T18:02:17.103Z,17.3
2023-03-18T18:07:23.259Z,17.2
2023-03-18T18:12:29.473Z,17.0
2023-03-18T18:17:35.658Z,16.8
2023-03-18T18:22:41.870Z,16.7
2023-03-18T18:27:48.083Z,16.5
2023-03-18T18:32:54.373Z,16.4
2023-03-18T18:38:00.497Z,16.3
2023-03-18T18:43:06.711Z,16.1
2023-03-18T18:48:12.908Z,16.0
2023-03-18T18:53:19.118Z,15.9
2023-03-18T18:58:25.322Z,15.8
2023-03-18T19:03:31.719Z,15.7
2023-03-18T19:08:37.747Z,15.6
2023-03-18T19:13:42.973Z,15.5
2023-03-18T19:18:48.216Z,15.5
2023-03-18T19:23:54.433Z,15.5
2023-03-18T19:29:00.639Z,15.4
2023-03-18T19:34:05.872Z,15.4
2023-03-18T19:39:12.086Z,15.3
2023-03-18T19:44:17.314Z,15.3
2023-03-18T19:49:23.529Z,15.3
2023-03-18T19:54:29.747Z,15.3
2023-03-18T19:59:39.531Z,15.3
2023-03-18T20:04:42.146Z,15.3
2023-03-18T20:09:48.348Z,15.3
2023-03-18T20:14:54.560Z,15.3
2023-03-18T20:20:00.768Z,15.3
2023-03-18T20:25:06.977Z,15.4
2023-03-18T20:30:13.184Z,15.4
2023-03-18T20:35:19.417Z,15.3
2023-03-18T20:40:25.607Z,15.3
2023-03-18T20:45:32.167Z,15.3
2023-03-18T20:50:38.054Z,15.3
2023-03-18T20:55:44.228Z,15.3
2023-03-18T21:00:50.452Z,15.2
2023-03-18T21:05:56.686Z,15.2
2023-03-18T21:11:02.886Z,15.1
2023-03-18T21:16:09.082Z,15.1
2023-03-18T21:21:14.626Z,15.0
2023-03-18T21:26:20.517Z,15.0
2023-03-18T21:31:25.847Z,14.9
2023-03-18T21:36:31.959Z,14.9
2023-03-18T21:41:38.170Z,14.9
2023-03-18T21:46:44.377Z,14.8
2023-03-18T21:51:50.589Z,14.8
2023-03-18T21:56:56.797Z,14.7
2023-03-18T22:02:03.008Z,14.7
2023-03-18T22:07:09.217Z,14.6
2023-03-18T22:12:15.433Z,14.6
2023-03-18T22:17:21.649Z,14.5
2023-03-18T22:22:27.856Z,14.4
2023-03-18T22:27:34.066Z,14.4
2023-03-18T22:32:40.342Z,14.3
2023-03-18T22:37:46.494Z,14.2
2023-03-18T22:42:52.705Z,14.2
2023-03-18T22:47:58.921Z,14.1
2023-03-18T22:53:05.127Z,14.0
2023-03-18T22:58:11.344Z,14.0
2023-03-18T23:03:17.656Z,14.0
2023-03-18T23:08:23.767Z,14.0
2023-03-18T23:13:29.992Z,14.0
2023-03-18T23:18:35.220Z,14.0
2023-03-18T23:23:41.429Z,14.0
2023-03-18T23:28:47.641Z,14.0
2023-03-18T23:33:52.884Z,14.1
2023-03-18T23:38:59.119Z,14.1
2023-03-18T23:44:05.311Z,14.0
2023-03-18T23:49:11.534Z,14.0
2023-03-18T23:54:17.752Z,13.9
2023-03-18T23:59:23.962Z,13.9
